Time;durP1;ratioP1;P1;durP2;ratioP2;P2;SDS_P1;SDS_P2;PMS_P1;PMS_P2;Temp;Humidity;BMP_temperature;BMP_pressure;BME280_temperature;BME280_humidity;BME280_pressure;Samples;Min_cycle;Max_cycle;Signal;HPM_P1;HPM_P2
2022/04/28 00:02:17;;;;;;;;;;;2.90;99.90;;;;;;5050482;28;19913;-74
2022/04/28 00:04:42;;;;;;;;;;;2.90;99.90;;;;;;5051110;28;19909;-75
2022/04/28 00:07:08;;;;;;;;;;;2.90;99.90;;;;;;5054338;28;20011;-79
2022/04/28 00:09:33;;;;;;;;;;;2.80;99.90;;;;;;5054500;28;19909;-74
2022/04/28 00:11:59;;;;;;;;;;;2.80;99.90;;;;;;5053876;28;19908;-74
2022/04/28 00:14:24;;;;;;;;;;;2.80;99.90;;;;;;5053899;28;19908;-77
2022/04/28 00:16:50;;;;;;;;;;;2.80;99.90;;;;;;5059855;28;19919;-74
2022/04/28 00:19:15;;;;;;;;;;;2.80;99.90;;;;;;5054128;28;19923;-74
2022/04/28 00:21:41;;;;;;;;;;;2.90;99.90;;;;;;5054403;28;20061;-75
2022/04/28 00:24:06;;;;;;;;;;;2.70;99.90;;;;;;5053798;28;20007;-77
2022/04/28 00:26:32;;;;;;;;;;;2.70;99.90;;;;;;5054071;28;19970;-74
2022/04/28 00:28:57;;;;;;;;;;;2.60;99.90;;;;;;5054127;28;20273;-74
2022/04/28 00:31:23;;;;;;;;;;;2.60;99.90;;;;;;5053774;28;20370;-75
2022/04/28 00:33:48;;;;;;;;;;;2.50;99.90;;;;;;5053658;28;19955;-74
2022/04/28 00:36:14;;;;;;;;;;;2.60;99.90;;;;;;5053941;28;19944;-74
2022/04/28 00:38:40;;;;;;;;;;;2.60;99.90;;;;;;5053874;28;19909;-76
2022/04/28 00:41:05;;;;;;;;;;;2.60;99.90;;;;;;5053574;28;19916;-74
2022/04/28 00:43:31;;;;;;;;;;;2.50;99.90;;;;;;5048172;28;19913;-77
2022/04/28 00:45:57;;;;;;;;;;;2.60;99.90;;;;;;5061320;28;19931;-76
2022/04/28 00:51:08;;;;;;;;;;;2.50;99.90;;;;;;5053753;28;19971;-74
2022/04/28 00:53:35;;;;;;;;;;;2.40;99.90;;;;;;5053304;28;19978;-79
2022/04/28 00:56:02;;;;;;;;;;;2.50;99.90;;;;;;5053448;28;19920;-74
2022/04/28 00:58:27;;;;;;;;;;;2.40;99.90;;;;;;5052320;28;19909;-76
2022/04/28 01:00:53;;;;;;;;;;;2.40;99.90;;;;;;5053540;28;19909;-75
2022/04/28 01:03:20;;;;;;;;;;;2.50;99.90;;;;;;5052785;28;20444;-74
2022/04/28 01:05:45;;;;;;;;;;;2.60;99.90;;;;;;5053319;28;19916;-74
2022/04/28 01:08:11;;;;;;;;;;;2.50;99.90;;;;;;5053382;28;20011;-74
2022/04/28 01:10:36;;;;;;;;;;;2.40;99.90;;;;;;5053984;28;19936;-75
2022/04/28 01:13:02;;;;;;;;;;;2.20;99.90;;;;;;5066238;28;19916;-79
2022/04/28 01:15:28;;;;;;;;;;;2.10;99.90;;;;;;5050403;28;19909;-75
2022/04/28 01:17:53;;;;;;;;;;;2.00;99.90;;;;;;5052746;28;20389;-74
2022/04/28 01:20:19;;;;;;;;;;;2.00;99.90;;;;;;5053080;28;19916;-74
2022/04/28 01:22:44;;;;;;;;;;;2.00;99.90;;;;;;5052929;28;19920;-75
2022/04/28 01:25:11;;;;;;;;;;;2.10;99.90;;;;;;5052870;28;19935;-78
2022/04/28 01:27:37;;;;;;;;;;;2.10;99.90;;;;;;5052913;28;19915;-76
2022/04/28 01:30:03;;;;;;;;;;;2.10;99.90;;;;;;5052554;28;19944;-74
2022/04/28 01:32:29;;;;;;;;;;;2.10;99.90;;;;;;5052406;28;19915;-74
2022/04/28 01:34:54;;;;;;;;;;;2.10;99.90;;;;;;5052501;28;19999;-78
2022/04/28 01:37:20;;;;;;;;;;;2.10;99.90;;;;;;5053073;28;19947;-74
2022/04/28 01:39:45;;;;;;;;;;;2.10;99.90;;;;;;5053015;28;19909;-74
2022/04/28 01:42:11;;;;;;;;;;;2.10;99.90;;;;;;5053261;28;19948;-74
2022/04/28 01:44:36;;;;;;;;;;;2.10;99.90;;;;;;5053548;28;19999;-78
2022/04/28 01:47:02;;;;;;;;;;;2.00;99.90;;;;;;5053742;28;19909;-74
2022/04/28 01:49:28;;;;;;;;;;;1.90;99.90;;;;;;5052521;28;19912;-74
2022/04/28 01:57:21;;;;;;;;;;;1.80;99.90;;;;;;5052474;28;19970;-74
2022/04/28 01:59:47;;;;;;;;;;;1.80;99.90;;;;;;5052323;28;19908;-77
2022/04/28 02:02:12;;;;;;;;;;;1.80;99.90;;;;;;5052001;28;19935;-74
2022/04/28 02:04:38;;;;;;;;;;;1.80;99.90;;;;;;5051802;28;19947;-76
2022/04/28 02:07:04;;;;;;;;;;;1.90;99.90;;;;;;5052271;28;19909;-74
2022/04/28 02:09:29;;;;;;;;;;;1.80;99.90;;;;;;5052051;28;20399;-76
2022/04/28 02:11:55;;;;;;;;;;;1.80;99.90;;;;;;5051678;28;19952;-75
2022/04/28 02:14:20;;;;;;;;;;;1.90;99.90;;;;;;5051575;28;20175;-74
2022/04/28 02:16:46;;;;;;;;;;;1.80;99.90;;;;;;5052050;28;20004;-74
2022/04/28 02:19:11;;;;;;;;;;;1.80;99.90;;;;;;5051889;28;20377;-75
2022/04/28 02:21:37;;;;;;;;;;;1.80;99.90;;;;;;5051637;28;20054;-74
2022/04/28 02:24:02;;;;;;;;;;;1.80;99.90;;;;;;5051468;28;19913;-74
2022/04/28 02:26:30;;;;;;;;;;;1.90;99.90;;;;;;5050934;28;20405;-75
2022/04/28 02:28:55;;;;;;;;;;;1.90;99.90;;;;;;5051315;28;20416;-74
2022/04/28 02:31:21;;;;;;;;;;;1.80;99.90;;;;;;5051349;28;19956;-74
2022/04/28 02:33:46;;;;;;;;;;;1.90;99.90;;;;;;5051614;28;20305;-75
2022/04/28 02:36:13;;;;;;;;;;;1.70;99.90;;;;;;5051520;28;19955;-78
2022/04/28 02:38:38;;;;;;;;;;;1.70;99.90;;;;;;5051606;28;19916;-74
2022/04/28 02:41:04;;;;;;;;;;;1.80;99.90;;;;;;5051495;28;19909;-74
2022/04/28 02:43:29;;;;;;;;;;;1.80;99.90;;;;;;5051233;28;19956;-74
2022/04/28 02:45:55;;;;;;;;;;;1.80;99.90;;;;;;5059567;28;20011;-74
2022/04/28 02:48:20;;;;;;;;;;;1.70;99.90;;;;;;5050063;28;19967;-74
2022/04/28 02:50:46;;;;;;;;;;;1.70;99.90;;;;;;5040675;28;19916;-77
2022/04/28 02:53:12;;;;;;;;;;;1.70;99.90;;;;;;5050791;28;20299;-74
2022/04/28 02:55:39;;;;;;;;;;;1.70;99.90;;;;;;5050058;28;19909;-74
2022/04/28 02:58:05;;;;;;;;;;;1.80;99.90;;;;;;5050027;28;19923;-74
2022/04/28 03:00:31;;;;;;;;;;;1.70;99.90;;;;;;5051314;28;19913;-75
2022/04/28 03:02:56;;;;;;;;;;;1.70;99.90;;;;;;5050883;28;19913;-74
2022/04/28 03:05:22;;;;;;;;;;;1.70;99.90;;;;;;5050946;28;20010;-74
2022/04/28 03:10:49;;;;;;;;;;;1.60;99.90;;;;;;5051166;28;20322;-75
2022/04/28 03:13:18;;;;;;;;;;;1.50;99.90;;;;;;5050864;28;20452;-74
2022/04/28 03:15:45;;;;;;;;;;;1.50;99.90;;;;;;5050887;28;19909;-74
2022/04/28 03:18:11;;;;;;;;;;;1.50;99.90;;;;;;5051168;28;19920;-79
2022/04/28 03:20:37;;;;;;;;;;;1.30;99.90;;;;;;5051027;28;19909;-76
2022/04/28 03:23:02;;;;;;;;;;;1.20;99.90;;;;;;5050592;28;20338;-74
2022/04/28 03:25:28;;;;;;;;;;;1.20;99.90;;;;;;5050907;28;20107;-74
2022/04/28 03:27:56;;;;;;;;;;;1.30;99.90;;;;;;5050816;28;19912;-74
2022/04/28 03:30:22;;;;;;;;;;;1.30;99.90;;;;;;5049907;28;20321;-74
2022/04/28 03:32:47;;;;;;;;;;;1.30;99.90;;;;;;5050578;28;20366;-75
2022/04/28 03:35:14;;;;;;;;;;;1.40;99.90;;;;;;5050763;28;19916;-74
2022/04/28 03:37:40;;;;;;;;;;;1.40;99.90;;;;;;5051083;28;19974;-77
2022/04/28 03:40:05;;;;;;;;;;;1.30;99.90;;;;;;5051757;28;19916;-79
2022/04/28 03:42:31;;;;;;;;;;;1.30;99.90;;;;;;5054653;28;19913;-74
2022/04/28 03:44:56;;;;;;;;;;;1.30;99.90;;;;;;5054471;28;19951;-74
2022/04/28 03:47:22;;;;;;;;;;;1.20;99.90;;;;;;5055043;28;19995;-74
2022/04/28 03:49:47;;;;;;;;;;;1.30;99.90;;;;;;5054630;28;20273;-77
2022/04/28 03:52:13;;;;;;;;;;;1.20;99.90;;;;;;5054277;28;19913;-74
2022/04/28 03:54:38;;;;;;;;;;;1.20;99.90;;;;;;5053275;28;19909;-74
2022/04/28 03:57:04;;;;;;;;;;;1.20;99.90;;;;;;5053746;28;20417;-75
2022/04/28 03:59:30;;;;;;;;;;;1.20;99.90;;;;;;5054559;28;19909;-76
2022/04/28 04:01:56;;;;;;;;;;;1.10;99.90;;;;;;5054471;28;20388;-77
2022/04/28 04:04:21;;;;;;;;;;;1.20;99.90;;;;;;5054117;28;20546;-74
2022/04/28 04:06:46;;;;;;;;;;;1.20;99.90;;;;;;5054442;28;19912;-74
2022/04/28 04:09:12;;;;;;;;;;;1.10;99.90;;;;;;5054396;28;19915;-76
2022/04/28 04:11:37;;;;;;;;;;;1.10;99.90;;;;;;5054017;28;19909;-74
2022/04/28 04:14:03;;;;;;;;;;;1.20;99.90;;;;;;5053882;28;19908;-74
2022/04/28 04:16:28;;;;;;;;;;;1.20;99.90;;;;;;5053965;28;20431;-74
2022/04/28 04:18:54;;;;;;;;;;;1.30;99.90;;;;;;5054064;28;20281;-74
2022/04/28 04:21:20;;;;;;;;;;;1.30;99.90;;;;;;5047488;28;19920;-74
2022/04/28 04:23:46;;;;;;;;;;;1.20;99.90;;;;;;5053957;28;19920;-74
2022/04/28 04:26:12;;;;;;;;;;;1.30;99.90;;;;;;5054108;28;20369;-74
2022/04/28 04:28:37;;;;;;;;;;;1.30;99.90;;;;;;5053992;28;19913;-74
2022/04/28 04:33:47;;;;;;;;;;;1.30;99.90;;;;;;5053676;28;19934;-75
2022/04/28 04:36:12;;;;;;;;;;;1.30;99.90;;;;;;5053887;28;19909;-74
2022/04/28 04:38:38;;;;;;;;;;;1.30;99.90;;;;;;5054011;28;20570;-74
2022/04/28 04:41:05;;;;;;;;;;;1.40;99.90;;;;;;5053903;28;19915;-74
2022/04/28 04:43:31;;;;;;;;;;;1.40;99.90;;;;;;5050574;28;19952;-78
2022/04/28 04:45:56;;;;;;;;;;;1.50;99.90;;;;;;5054117;28;19909;-74
2022/04/28 04:48:22;;;;;;;;;;;1.60;99.90;;;;;;5053951;28;19913;-74
2022/04/28 04:50:48;;;;;;;;;;;1.60;99.90;;;;;;5053881;28;20004;-76
2022/04/28 04:53:14;;;;;;;;;;;1.60;99.90;;;;;;5053314;28;19952;-74
2022/04/28 04:55:39;;;;;;;;;;;1.80;99.90;;;;;;5053738;28;19909;-75
2022/04/28 04:58:05;;;;;;;;;;;1.80;99.90;;;;;;5054043;28;19974;-73
2022/04/28 05:00:31;;;;;;;;;;;1.70;99.90;;;;;;5053703;28;19913;-73
2022/04/28 05:02:57;;;;;;;;;;;1.80;99.90;;;;;;5054283;28;20523;-74
2022/04/28 05:05:22;;;;;;;;;;;1.90;99.90;;;;;;5053017;28;19909;-74
2022/04/28 05:07:48;;;;;;;;;;;2.00;99.90;;;;;;5052965;28;19909;-75
2022/04/28 05:10:13;;;;;;;;;;;2.00;99.90;;;;;;5053029;28;19909;-77
2022/04/28 05:12:39;;;;;;;;;;;2.20;99.90;;;;;;5052794;28;20384;-74
2022/04/28 05:15:05;;;;;;;;;;;2.30;99.90;;;;;;5049095;28;19962;-74
2022/04/28 05:17:30;;;;;;;;;;;2.30;99.90;;;;;;5055197;28;20366;-74
2022/04/28 05:20:00;;;;;;;;;;;2.40;99.90;;;;;;5053007;28;19962;-78
2022/04/28 05:22:25;;;;;;;;;;;2.40;99.90;;;;;;5052532;28;19908;-78
2022/04/28 05:24:51;;;;;;;;;;;2.80;99.90;;;;;;5052697;28;19915;-74
2022/04/28 05:27:17;;;;;;;;;;;2.80;99.90;;;;;;5052770;28;20003;-76
2022/04/28 05:29:43;;;;;;;;;;;2.80;99.90;;;;;;5052974;28;19909;-75
2022/04/28 05:32:08;;;;;;;;;;;2.90;99.90;;;;;;5052467;28;20329;-75
2022/04/28 05:34:34;;;;;;;;;;;3.00;99.90;;;;;;5052297;28;19920;-74
2022/04/28 05:36:59;;;;;;;;;;;3.10;99.90;;;;;;5052737;28;19913;-76
2022/04/28 05:39:26;;;;;;;;;;;3.20;99.90;;;;;;5052598;28;19999;-75
2022/04/28 05:41:52;;;;;;;;;;;3.40;99.90;;;;;;5052308;28;19909;-75
2022/04/28 05:47:02;;;;;;;;;;;3.40;99.90;;;;;;5050234;28;19924;-75
2022/04/28 05:49:27;;;;;;;;;;;3.40;99.90;;;;;;5052476;28;19913;-75
2022/04/28 05:51:53;;;;;;;;;;;3.60;99.90;;;;;;5052387;28;20380;-74
2022/04/28 05:54:18;;;;;;;;;;;3.70;99.90;;;;;;5052170;28;19912;-74
2022/04/28 05:56:44;;;;;;;;;;;3.80;99.90;;;;;;5047171;28;19908;-75
2022/04/28 05:59:10;;;;;;;;;;;3.90;99.90;;;;;;5054419;28;19909;-75
2022/04/28 06:01:36;;;;;;;;;;;4.20;99.90;;;;;;5057917;28;19977;-75
2022/04/28 06:04:06;;;;;;;;;;;4.40;99.90;;;;;;5057939;28;19912;-74
2022/04/28 06:06:31;;;;;;;;;;;4.70;99.90;;;;;;5052381;28;19913;-74
2022/04/28 06:08:57;;;;;;;;;;;4.90;99.90;;;;;;5043618;28;20346;-76
2022/04/28 06:11:23;;;;;;;;;;;5.20;99.90;;;;;;5051656;28;19987;-77
2022/04/28 06:13:48;;;;;;;;;;;5.40;99.90;;;;;;5046468;28;19924;-74
2022/04/28 06:16:14;;;;;;;;;;;5.50;99.90;;;;;;5053146;28;19916;-75
2022/04/28 06:18:39;;;;;;;;;;;5.60;99.90;;;;;;5051104;28;19923;-75
2022/04/28 06:21:05;;;;;;;;;;;5.70;99.90;;;;;;5050348;28;19916;-77
2022/04/28 06:23:30;;;;;;;;;;;5.80;99.90;;;;;;5051392;28;19916;-74
2022/04/28 06:25:56;;;;;;;;;;;6.00;99.90;;;;;;5050198;28;19936;-74
2022/04/28 06:28:21;;;;;;;;;;;6.10;99.90;;;;;;5051105;28;19915;-77
2022/04/28 06:30:47;;;;;;;;;;;6.40;99.90;;;;;;5051689;28;19916;-74
2022/04/28 06:33:12;;;;;;;;;;;6.60;99.90;;;;;;5051353;28;20313;-75
2022/04/28 06:35:38;;;;;;;;;;;6.70;99.90;;;;;;5051627;28;19924;-75
2022/04/28 06:38:04;;;;;;;;;;;6.90;99.90;;;;;;5051963;28;19956;-75
2022/04/28 06:40:29;;;;;;;;;;;7.00;99.90;;;;;;5051313;28;19916;-76
2022/04/28 06:42:55;;;;;;;;;;;7.20;99.90;;;;;;5050953;28;19970;-75
2022/04/28 06:45:21;;;;;;;;;;;7.40;99.90;;;;;;5050633;28;19962;-76
2022/04/28 06:47:46;;;;;;;;;;;7.60;99.90;;;;;;5055134;28;19931;-75
2022/04/28 06:50:12;;;;;;;;;;;7.70;99.90;;;;;;5051302;28;19909;-73
2022/04/28 06:52:38;;;;;;;;;;;7.80;99.90;;;;;;5050809;28;19916;-75
2022/04/28 06:55:04;;;;;;;;;;;8.00;99.90;;;;;;5050911;28;19917;-75
2022/04/28 06:57:30;;;;;;;;;;;8.20;99.90;;;;;;5050827;28;19916;-75
2022/04/28 06:59:55;;;;;;;;;;;8.30;99.90;;;;;;5051107;28;20282;-75
2022/04/28 07:02:21;;;;;;;;;;;8.50;99.90;;;;;;5051090;28;19944;-75
2022/04/28 07:04:47;;;;;;;;;;;8.80;99.90;;;;;;5050577;28;19913;-75
2022/04/28 07:07:13;;;;;;;;;;;9.10;99.90;;;;;;5051025;28;19909;-75
2022/04/28 07:09:38;;;;;;;;;;;9.00;99.90;;;;;;5051079;28;19916;-73
2022/04/28 07:12:04;;;;;;;;;;;9.30;99.90;;;;;;5050703;28;20293;-75
2022/04/28 07:14:29;;;;;;;;;;;9.80;99.90;;;;;;5045755;28;19913;-75
2022/04/28 07:16:54;;;;;;;;;;;10.40;99.90;;;;;;5048583;28;19923;-75
2022/04/28 07:19:20;;;;;;;;;;;12.40;99.90;;;;;;5050712;28;19916;-76
2022/04/28 07:21:45;;;;;;;;;;;13.40;99.90;;;;;;5051221;28;20011;-76
2022/04/28 07:24:11;;;;;;;;;;;14.20;98.10;;;;;;5050978;28;19917;-76
2022/04/28 07:26:37;;;;;;;;;;;14.60;96.60;;;;;;5050650;28;19916;-75
2022/04/28 07:29:05;;;;;;;;;;;15.10;96.70;;;;;;5051027;28;19909;-74
2022/04/28 07:31:30;;;;;;;;;;;15.20;93.40;;;;;;5050610;28;19909;-74
2022/04/28 07:33:56;;;;;;;;;;;15.00;93.00;;;;;;5050955;28;20412;-74
2022/04/28 07:36:21;;;;;;;;;;;15.50;92.10;;;;;;5051047;28;20387;-74
2022/04/28 07:38:47;;;;;;;;;;;15.20;91.60;;;;;;5050832;28;20352;-73
2022/04/28 07:41:14;;;;;;;;;;;15.90;92.20;;;;;;5050486;28;19909;-74
2022/04/28 07:43:40;;;;;;;;;;;15.90;91.40;;;;;;5046143;28;20273;-74
2022/04/28 07:46:05;;;;;;;;;;;16.50;90.50;;;;;;5050176;28;19909;-74
2022/04/28 07:48:31;;;;;;;;;;;16.40;87.60;;;;;;5050787;28;19920;-74
2022/04/28 07:50:56;;;;;;;;;;;16.20;89.40;;;;;;5044235;28;20376;-74
2022/04/28 07:53:22;;;;;;;;;;;16.70;90.10;;;;;;5050448;28;19909;-74
2022/04/28 07:58:32;;;;;;;;;;;17.80;87.00;;;;;;5051014;28;20419;-73
2022/04/28 08:00:57;;;;;;;;;;;16.90;81.70;;;;;;5043819;28;19913;-75
2022/04/28 08:03:23;;;;;;;;;;;18.10;81.50;;;;;;5049896;28;20003;-74
2022/04/28 08:05:48;;;;;;;;;;;18.10;81.40;;;;;;5049267;28;19909;-75
2022/04/28 08:08:14;;;;;;;;;;;18.50;78.30;;;;;;5050869;28;19909;-74
2022/04/28 08:10:39;;;;;;;;;;;18.70;81.70;;;;;;5050629;28;19996;-75
2022/04/28 08:13:05;;;;;;;;;;;19.10;77.50;;;;;;5050358;28;19909;-74
2022/04/28 08:15:30;;;;;;;;;;;19.00;80.60;;;;;;5049720;28;19913;-74
2022/04/28 08:17:56;;;;;;;;;;;19.00;78.60;;;;;;5043799;28;20388;-73
2022/04/28 08:20:21;;;;;;;;;;;19.00;81.00;;;;;;5050565;28;19909;-75
2022/04/28 08:22:47;;;;;;;;;;;19.40;73.90;;;;;;5050105;28;20428;-75
2022/04/28 08:25:12;;;;;;;;;;;19.20;77.90;;;;;;5050627;28;19959;-74
2022/04/28 08:27:38;;;;;;;;;;;19.30;73.80;;;;;;5053904;28;20293;-74
2022/04/28 08:30:04;;;;;;;;;;;19.80;71.90;;;;;;5054319;28;19915;-75
2022/04/28 08:32:29;;;;;;;;;;;19.90;71.80;;;;;;5054079;28;19909;-74
2022/04/28 08:34:55;;;;;;;;;;;20.40;76.40;;;;;;5053789;28;19917;-75
2022/04/28 08:37:20;;;;;;;;;;;18.60;70.90;;;;;;5052959;28;20091;-74
2022/04/28 08:39:46;;;;;;;;;;;19.40;72.40;;;;;;5053843;28;20012;-75
2022/04/28 08:42:13;;;;;;;;;;;20.60;71.90;;;;;;5053700;28;19913;-74
2022/04/28 08:44:38;;;;;;;;;;;20.80;68.20;;;;;;5060294;28;20281;-77
2022/04/28 08:47:04;;;;;;;;;;;20.00;69.30;;;;;;5061298;28;19916;-74
2022/04/28 08:49:30;;;;;;;;;;;20.80;69.90;;;;;;5053588;28;20378;-74
2022/04/28 08:51:56;;;;;;;;;;;20.20;64.20;;;;;;5053129;28;20397;-74
2022/04/28 08:54:23;;;;;;;;;;;19.80;69.70;;;;;;5053473;28;20282;-75
2022/04/28 08:56:49;;;;;;;;;;;20.80;69.40;;;;;;5053937;28;20366;-74
2022/04/28 08:59:15;;;;;;;;;;;20.60;67.80;;;;;;5056890;28;19913;-77
2022/04/28 09:01:41;;;;;;;;;;;21.70;68.20;;;;;;5061826;28;20289;-75
2022/04/28 09:04:07;;;;;;;;;;;22.20;65.60;;;;;;5052973;28;19996;-74
2022/04/28 09:06:34;;;;;;;;;;;19.80;64.20;;;;;;5052687;28;19955;-75
2022/04/28 09:09:01;;;;;;;;;;;21.20;65.40;;;;;;5052985;28;19915;-74
2022/04/28 09:11:28;;;;;;;;;;;21.90;60.50;;;;;;5053059;28;19919;-74
2022/04/28 09:14:09;;;;;;;;;;;21.40;58.10;;;;;;5046752;28;19953;-77
2022/04/28 09:16:35;;;;;;;;;;;20.70;59.50;;;;;;5051069;28;19916;-74
2022/04/28 09:19:01;;;;;;;;;;;20.50;63.60;;;;;;5052323;28;19928;-74
2022/04/28 09:21:26;;;;;;;;;;;19.90;58.30;;;;;;5052708;28;19913;-73
2022/04/28 09:23:52;;;;;;;;;;;19.50;62.90;;;;;;5052651;28;19947;-74
2022/04/28 09:26:18;;;;;;;;;;;19.90;59.20;;;;;;5053072;28;19909;-74
2022/04/28 09:28:43;;;;;;;;;;;21.80;59.80;;;;;;5052667;28;19913;-73
2022/04/28 09:31:09;;;;;;;;;;;21.40;56.40;;;;;;5052672;28;20273;-73
2022/04/28 09:33:36;;;;;;;;;;;20.50;59.20;;;;;;5052361;28;19963;-74
2022/04/28 09:36:03;;;;;;;;;;;21.10;57.10;;;;;;5052627;28;20361;-74
2022/04/28 09:38:28;;;;;;;;;;;21.70;57.10;;;;;;5051616;28;19960;-74
2022/04/28 09:43:38;;;;;;;;;;;23.90;59.70;;;;;;5052510;28;19959;-74
2022/04/28 09:46:04;;;;;;;;;;;22.70;54.90;;;;;;5052112;28;19912;-74
2022/04/28 09:48:30;;;;;;;;;;;23.10;57.10;;;;;;5053084;28;20272;-74
2022/04/28 09:50:59;;;;;;;;;;;22.70;57.00;;;;;;5052515;28;20395;-74
2022/04/28 09:53:27;;;;;;;;;;;21.10;60.80;;;;;;5052056;28;19984;-75
2022/04/28 09:55:53;;;;;;;;;;;21.60;58.70;;;;;;5052329;28;20282;-75
2022/04/28 09:58:20;;;;;;;;;;;20.60;59.00;;;;;;5052137;28;20323;-73
2022/04/28 10:00:46;;;;;;;;;;;20.90;55.60;;;;;;5046968;28;19909;-72
2022/04/28 10:03:11;;;;;;;;;;;20.90;58.00;;;;;;5057356;28;19934;-72
2022/04/28 10:05:37;;;;;;;;;;;22.60;54.80;;;;;;5055529;28;19912;-72
2022/04/28 10:08:03;;;;;;;;;;;24.00;54.00;;;;;;5052076;28;19971;-72
2022/04/28 10:10:29;;;;;;;;;;;22.70;56.10;;;;;;5052406;28;20440;-72
2022/04/28 10:12:56;;;;;;;;;;;22.50;50.30;;;;;;5051702;28;19917;-72
2022/04/28 10:15:22;;;;;;;;;;;22.30;54.90;;;;;;5052566;28;19958;-71
2022/04/28 10:17:49;;;;;;;;;;;22.90;53.40;;;;;;5046679;28;19959;-73
2022/04/28 10:20:33;;;;;;;;;;;22.40;52.40;;;;;;5050083;28;20545;-72
2022/04/28 10:23:00;;;;;;;;;;;22.40;54.20;;;;;;5051494;28;20400;-72
2022/04/28 10:33:44;;;;;;;;;;;25.20;47.30;;;;;;5051622;28;20337;-72
2022/04/28 10:36:20;;;;;;;;;;;24.50;46.30;;;;;;5051553;28;19944;-71
2022/04/28 10:39:08;;;;;;;;;;;23.00;47.90;;;;;;5051566;28;19908;-72
2022/04/28 10:41:34;;;;;;;;;;;22.70;50.70;;;;;;5051218;28;20510;-71
2022/04/28 10:44:00;;;;;;;;;;;23.20;47.90;;;;;;5049978;28;20015;-72
2022/04/28 10:46:27;;;;;;;;;;;23.70;48.20;;;;;;5053672;28;19915;-72
2022/04/28 10:48:54;;;;;;;;;;;23.80;48.30;;;;;;5050737;28;19916;-72
2022/04/28 10:51:20;;;;;;;;;;;24.00;48.80;;;;;;5051225;28;19908;-72
2022/04/28 10:53:54;;;;;;;;;;;24.40;46.20;;;;;;5051064;28;19909;-73
2022/04/28 10:56:20;;;;;;;;;;;24.90;45.60;;;;;;5051196;28;19962;-74
2022/04/28 10:58:45;;;;;;;;;;;25.00;49.00;;;;;;5051230;28;19995;-74
2022/04/28 11:01:23;;;;;;;;;;;25.20;47.30;;;;;;5050897;28;19916;-73
2022/04/28 11:03:49;;;;;;;;;;;26.10;48.50;;;;;;5050905;28;20386;-73
2022/04/28 11:06:15;;;;;;;;;;;24.60;45.20;;;;;;5051173;28;19916;-72
2022/04/28 11:08:53;;;;;;;;;;;24.10;48.90;;;;;;5051062;28;20397;-73
2022/04/28 11:11:18;;;;;;;;;;;25.00;45.70;;;;;;5051155;28;20372;-72
2022/04/28 11:13:48;;;;;;;;;;;24.70;50.30;;;;;;5047478;28;20016;-73
2022/04/28 11:16:14;;;;;;;;;;;23.00;48.30;;;;;;5050276;28;20355;-73
2022/04/28 11:18:40;;;;;;;;;;;24.40;48.80;;;;;;5048914;28;19917;-73
2022/04/28 11:21:09;;;;;;;;;;;24.70;45.80;;;;;;5050759;28;19999;-73
2022/04/28 11:23:43;;;;;;;;;;;23.60;49.60;;;;;;5050503;28;19913;-73
2022/04/28 11:26:08;;;;;;;;;;;23.40;48.20;;;;;;5050583;28;19916;-73
2022/04/28 11:28:34;;;;;;;;;;;22.00;49.70;;;;;;5050778;28;20091;-73
2022/04/28 11:31:00;;;;;;;;;;;22.20;49.80;;;;;;5050744;28;19909;-73
2022/04/28 11:33:26;;;;;;;;;;;22.60;55.00;;;;;;5050421;28;19916;-73
2022/04/28 11:35:52;;;;;;;;;;;21.70;52.90;;;;;;5050912;28;20286;-73
2022/04/28 11:38:25;;;;;;;;;;;21.80;49.70;;;;;;5049957;28;20385;-73
2022/04/28 11:40:57;;;;;;;;;;;22.30;55.10;;;;;;5050378;28;19908;-73
2022/04/28 11:43:27;;;;;;;;;;;21.40;53.00;;;;;;5047536;28;19932;-73
2022/04/28 11:45:53;;;;;;;;;;;20.90;49.90;;;;;;5051288;28;20004;-73
2022/04/28 11:48:20;;;;;;;;;;;20.90;50.10;;;;;;5050602;28;20393;-73
2022/04/28 11:50:47;;;;;;;;;;;21.10;52.60;;;;;;5050726;28;19909;-73
2022/04/28 11:53:12;;;;;;;;;;;20.60;54.00;;;;;;5049468;28;19921;-73
2022/04/28 11:55:40;;;;;;;;;;;20.60;53.90;;;;;;5050485;28;20289;-73
2022/04/28 11:58:10;;;;;;;;;;;20.10;51.40;;;;;;5050499;28;19909;-71
2022/04/28 12:00:37;;;;;;;;;;;19.50;50.40;;;;;;5049118;28;19978;-72
2022/04/28 12:03:03;;;;;;;;;;;19.90;59.50;;;;;;5053787;28;20308;-73
2022/04/28 12:05:32;;;;;;;;;;;20.90;54.70;;;;;;5054277;28;20346;-73
2022/04/28 12:07:57;;;;;;;;;;;21.20;51.20;;;;;;5053965;28;19908;-73
2022/04/28 12:15:56;;;;;;;;;;;22.10;54.60;;;;;;5052676;28;20380;-73
2022/04/28 12:21:33;;;;;;;;;;;21.40;51.90;;;;;;5053223;28;19927;-73
2022/04/28 12:24:00;;;;;;;;;;;23.90;49.70;;;;;;5053021;28;20395;-73
2022/04/28 12:26:26;;;;;;;;;;;24.10;46.10;;;;;;5054030;28;19909;-73
2022/04/28 12:28:52;;;;;;;;;;;23.80;44.40;;;;;;5053663;28;20054;-73
2022/04/28 12:31:28;;;;;;;;;;;24.90;47.30;;;;;;5053925;28;19912;-73
2022/04/28 12:33:54;;;;;;;;;;;25.30;43.00;;;;;;5053662;28;19909;-73
2022/04/28 12:36:20;;;;;;;;;;;24.00;43.60;;;;;;5053595;28;19963;-73
2022/04/28 12:38:49;;;;;;;;;;;26.10;44.50;;;;;;5053510;28;19916;-73
2022/04/28 12:41:16;;;;;;;;;;;25.20;44.30;;;;;;5053461;28;19909;-72
2022/04/28 12:43:42;;;;;;;;;;;24.70;43.70;;;;;;5052421;28;19923;-72
2022/04/28 12:46:09;;;;;;;;;;;25.00;42.10;;;;;;5052948;28;19932;-73
2022/04/28 12:48:35;;;;;;;;;;;25.90;42.30;;;;;;5053656;28;20106;-73
2022/04/28 12:51:11;;;;;;;;;;;26.50;41.90;;;;;;5052950;28;19912;-73
2022/04/28 12:53:37;;;;;;;;;;;27.80;41.20;;;;;;5052378;28;19945;-72
2022/04/28 12:56:07;;;;;;;;;;;24.90;39.70;;;;;;5052795;28;20362;-73
2022/04/28 12:58:36;;;;;;;;;;;25.30;40.80;;;;;;5052903;28;19916;-73
2022/04/28 13:01:02;;;;;;;;;;;25.70;41.80;;;;;;5052521;28;20381;-73
2022/04/28 13:03:28;;;;;;;;;;;26.20;44.00;;;;;;5052501;28;19913;-73
2022/04/28 13:05:55;;;;;;;;;;;25.60;43.90;;;;;;5052789;28;19909;-73
2022/04/28 13:08:20;;;;;;;;;;;25.00;42.40;;;;;;5052174;28;19909;-73
2022/04/28 13:10:46;;;;;;;;;;;25.60;42.70;;;;;;5052456;28;19920;-74
2022/04/28 13:13:11;;;;;;;;;;;27.40;41.10;;;;;;5049204;28;20282;-72
2022/04/28 13:15:37;;;;;;;;;;;27.70;40.30;;;;;;5046010;28;19916;-73
2022/04/28 13:18:02;;;;;;;;;;;27.70;39.20;;;;;;5050079;28;19921;-73
2022/04/28 13:20:28;;;;;;;;;;;27.20;39.40;;;;;;5052352;28;20040;-73
2022/04/28 13:22:53;;;;;;;;;;;26.20;40.10;;;;;;5051414;28;19916;-73
2022/04/28 13:25:19;;;;;;;;;;;25.90;39.80;;;;;;5051798;28;19916;-74
2022/04/28 13:27:44;;;;;;;;;;;27.40;40.60;;;;;;5051861;28;19960;-73
2022/04/28 13:30:11;;;;;;;;;;;26.50;40.80;;;;;;5051675;28;19909;-74
2022/04/28 13:32:36;;;;;;;;;;;27.00;41.70;;;;;;5051681;28;20293;-74
2022/04/28 13:35:02;;;;;;;;;;;26.40;40.10;;;;;;5051485;28;19909;-74
2022/04/28 13:37:28;;;;;;;;;;;26.80;39.10;;;;;;5051794;28;19909;-73
2022/04/28 13:39:54;;;;;;;;;;;25.90;42.20;;;;;;5051623;28;20337;-74
2022/04/28 13:42:19;;;;;;;;;;;26.60;40.40;;;;;;5051484;28;19909;-73
2022/04/28 13:44:45;;;;;;;;;;;25.10;44.20;;;;;;5051091;28;20011;-73
2022/04/28 13:47:10;;;;;;;;;;;24.40;40.90;;;;;;5051169;28;19912;-73
2022/04/28 13:49:36;;;;;;;;;;;25.80;41.10;;;;;;5051455;28;19915;-74
2022/04/28 13:52:02;;;;;;;;;;;26.80;40.70;;;;;;5050823;28;19991;-74
2022/04/28 13:54:27;;;;;;;;;;;27.10;39.60;;;;;;5051062;28;20263;-74
2022/04/28 13:56:53;;;;;;;;;;;25.40;40.60;;;;;;5051729;28;19924;-73
2022/04/28 13:59:18;;;;;;;;;;;25.10;41.10;;;;;;5052144;28;19908;-73
2022/04/28 14:01:44;;;;;;;;;;;25.20;41.30;;;;;;5046311;28;19908;-73
2022/04/28 14:04:10;;;;;;;;;;;25.50;40.90;;;;;;5051465;28;19912;-74
2022/04/28 14:06:35;;;;;;;;;;;25.90;42.70;;;;;;5053504;28;19909;-73
2022/04/28 14:09:01;;;;;;;;;;;24.70;41.40;;;;;;5052197;28;20001;-73
2022/04/28 14:11:27;;;;;;;;;;;24.60;43.20;;;;;;5051641;28;19913;-73
2022/04/28 14:13:52;;;;;;;;;;;24.50;41.10;;;;;;5048199;28;20649;-73
2022/04/28 14:16:18;;;;;;;;;;;25.10;42.20;;;;;;5050754;28;20491;-73
2022/04/28 14:18:43;;;;;;;;;;;25.20;42.20;;;;;;5048023;28;20015;-73
2022/04/28 14:21:09;;;;;;;;;;;25.30;40.00;;;;;;5051978;28;19955;-73
2022/04/28 14:23:34;;;;;;;;;;;25.80;40.70;;;;;;5050410;28;19912;-74
2022/04/28 14:26:00;;;;;;;;;;;25.60;41.40;;;;;;5051557;28;19987;-73
2022/04/28 14:28:25;;;;;;;;;;;25.30;41.30;;;;;;5051516;28;19940;-73
2022/04/28 14:30:51;;;;;;;;;;;25.60;40.90;;;;;;5051060;28;19952;-73
2022/04/28 14:33:16;;;;;;;;;;;26.30;41.60;;;;;;5049364;28;20297;-73
2022/04/28 14:35:42;;;;;;;;;;;27.20;45.10;;;;;;5050292;28;20136;-73
2022/04/28 14:38:08;;;;;;;;;;;26.40;44.70;;;;;;5050592;28;19920;-73
2022/04/28 14:40:34;;;;;;;;;;;26.70;43.70;;;;;;5050264;28;19946;-73
2022/04/28 14:42:59;;;;;;;;;;;26.80;44.10;;;;;;5050096;28;19909;-73
2022/04/28 14:45:25;;;;;;;;;;;27.50;44.80;;;;;;5045855;28;19959;-73
2022/04/28 14:47:50;;;;;;;;;;;27.40;40.80;;;;;;5045625;28;20378;-73
2022/04/28 14:53:00;;;;;;;;;;;25.20;42.50;;;;;;5050902;28;19915;-72
2022/04/28 14:55:26;;;;;;;;;;;25.60;42.50;;;;;;5050922;28;19909;-73
2022/04/28 14:57:52;;;;;;;;;;;26.30;43.50;;;;;;5051019;28;19938;-73
2022/04/28 15:00:19;;;;;;;;;;;26.20;42.50;;;;;;5051307;28;19909;-73